createdAt,value
2023-02-16T00:00:41.886Z,2.97
2023-02-16T00:05:44.924Z,3.00
2023-02-16T00:11:07.458Z,3.28
2023-02-16T00:16:19.927Z,3.00
2023-02-16T00:21:23.057Z,2.80
2023-02-16T00:26:27.294Z,3.33
2023-02-16T00:31:33.657Z,2.43
2023-02-16T00:36:36.265Z,3.40
2023-02-16T00:41:50.597Z,3.13
2023-02-16T00:46:53.420Z,3.70
2023-02-16T00:51:55.999Z,3.45
2023-02-16T00:56:58.848Z,4.38
2023-02-16T01:02:01.418Z,3.83
2023-02-16T01:07:30.534Z,4.13
2023-02-16T01:12:33.202Z,3.70
2023-02-16T01:17:35.876Z,4.03
2023-02-16T01:22:38.717Z,4.15
2023-02-16T01:27:45.094Z,4.65
2023-02-16T01:32:53.471Z,3.53
2023-02-16T01:37:56.696Z,3.78
2023-02-16T01:43:23.894Z,4.60
2023-02-16T01:48:30.087Z,5.40
2023-02-16T01:53:44.565Z,3.53
2023-02-16T01:58:55.019Z,4.45
2023-02-16T02:04:16.696Z,4.38
2023-02-16T02:09:32.376Z,3.40
2023-02-16T02:14:40.978Z,3.72
2023-02-16T02:20:20.724Z,3.90
2023-02-16T02:25:50.377Z,3.83
2023-02-16T02:31:17.964Z,4.65
2023-02-16T02:37:07.100Z,4.20
2023-02-16T02:42:45.286Z,4.53
2023-02-16T02:47:49.495Z,4.25
2023-02-16T02:52:52.737Z,4.32
2023-02-16T02:58:14.497Z,4.60
2023-02-16T03:03:22.663Z,4.70
2023-02-16T03:08:29.667Z,4.68
2023-02-16T03:13:50.368Z,4.07
2023-02-16T03:19:12.100Z,4.78
2023-02-16T03:24:55.471Z,4.40
2023-02-16T03:30:00.667Z,4.78
2023-02-16T03:35:04.554Z,5.78
2023-02-16T03:40:30.292Z,4.97
2023-02-16T03:45:37.941Z,4.82
2023-02-16T03:50:41.116Z,5.80
2023-02-16T03:55:47.793Z,5.10
2023-02-16T04:00:52.305Z,5.80
2023-02-16T04:05:56.326Z,6.28
2023-02-16T04:11:00.036Z,5.50
2023-02-16T04:16:02.593Z,5.78
2023-02-16T04:21:05.709Z,6.45
2023-02-16T04:26:08.516Z,6.82
2023-02-16T04:31:11.286Z,6.95
2023-02-16T04:36:13.914Z,6.93
2023-02-16T04:41:16.469Z,7.20
2023-02-16T04:46:19.586Z,7.97
2023-02-16T04:51:22.312Z,6.93
2023-02-16T04:56:24.919Z,7.13
2023-02-16T05:01:28.807Z,7.53
2023-02-16T05:06:32.835Z,7.93
2023-02-16T05:11:55.477Z,8.70
2023-02-16T05:16:59.031Z,8.65
2023-02-16T05:22:02.591Z,6.95
2023-02-16T05:27:08.517Z,7.68
2023-02-16T05:32:15.829Z,8.45
2023-02-16T05:37:19.714Z,7.78
2023-02-16T05:42:22.301Z,6.90
2023-02-16T05:47:24.954Z,7.20
2023-02-16T05:52:27.670Z,8.40
2023-02-16T05:57:30.378Z,7.78
2023-02-16T06:02:33.187Z,7.72
2023-02-16T06:07:36.073Z,6.97
2023-02-16T06:12:38.876Z,8.13
2023-02-16T06:17:41.675Z,9.50
2023-02-16T06:22:44.362Z,7.28
2023-02-16T06:27:46.958Z,6.88
2023-02-16T06:32:50.006Z,8.90
2023-02-16T06:37:52.633Z,10.85
2023-02-16T06:42:55.446Z,11.20
2023-02-16T06:47:58.174Z,8.65
2023-02-16T06:53:00.847Z,8.68
2023-02-16T06:58:05.515Z,8.05
2023-02-16T07:03:08.341Z,7.95
2023-02-16T07:08:11.189Z,7.13
2023-02-16T07:13:13.855Z,8.63
2023-02-16T07:18:16.781Z,6.68
2023-02-16T07:23:19.589Z,9.68
2023-02-16T07:28:22.438Z,8.05
2023-02-16T07:33:25.522Z,7.25
2023-02-16T07:38:28.315Z,6.93
2023-02-16T07:43:31.104Z,7.72
2023-02-16T07:48:33.824Z,8.75
2023-02-16T07:53:36.681Z,7.40
2023-02-16T07:58:39.330Z,6.97
2023-02-16T08:03:42.082Z,7.22
2023-02-16T08:08:45.273Z,7.93
2023-02-16T08:13:48.740Z,8.43
2023-02-16T08:18:52.671Z,8.73
2023-02-16T08:24:02.047Z,8.60
2023-02-16T08:29:06.308Z,10.32
2023-02-16T08:34:10.312Z,9.97
2023-02-16T08:39:16.909Z,9.60
2023-02-16T08:44:22.215Z,9.98
2023-02-16T08:49:26.381Z,10.98
2023-02-16T08:54:33.584Z,23.67
2023-02-16T08:59:37.301Z,17.33
2023-02-16T09:04:40.601Z,14.10
2023-02-16T09:09:44.575Z,9.57
2023-02-16T09:14:47.395Z,9.52
2023-02-16T09:19:50.808Z,8.98
2023-02-16T09:24:53.839Z,11.20
2023-02-16T09:29:58.704Z,11.95
2023-02-16T09:35:01.651Z,9.18
2023-02-16T09:40:05.694Z,9.93
2023-02-16T09:45:10.612Z,10.13
2023-02-16T09:50:52.533Z,8.57
2023-02-16T09:56:09.173Z,8.93
2023-02-16T10:01:31.846Z,9.57
2023-02-16T10:06:58.607Z,8.55
2023-02-16T10:12:08.765Z,9.52
2023-02-16T10:17:46.961Z,9.10
2023-02-16T10:23:34.197Z,10.45
2023-02-16T10:29:00.241Z,8.40
2023-02-16T10:34:23.399Z,9.93
2023-02-16T10:39:39.301Z,8.32
2023-02-16T10:45:10.148Z,8.55
2023-02-16T10:50:49.211Z,8.88
2023-02-16T10:55:51.796Z,9.23
2023-02-16T11:01:22.095Z,9.27
2023-02-16T11:06:27.558Z,8.77
2023-02-16T11:11:40.241Z,8.52
2023-02-16T11:16:44.255Z,9.07
2023-02-16T11:21:56.815Z,9.27
2023-02-16T11:27:23.318Z,8.20
2023-02-16T11:33:48.422Z,7.45
2023-02-16T11:39:15.187Z,7.88
2023-02-16T11:44:50.068Z,7.05
2023-02-16T11:50:23.931Z,6.78
2023-02-16T11:55:34.255Z,7.60
2023-02-16T12:00:37.138Z,6.85
2023-02-16T12:06:01.589Z,7.15
2023-02-16T12:11:28.885Z,7.17
2023-02-16T12:16:44.959Z,7.53
2023-02-16T12:21:59.985Z,6.82
2023-02-16T12:27:08.398Z,7.18
2023-02-16T12:32:32.291Z,8.35
2023-02-16T12:38:33.341Z,8.45
2023-02-16T12:43:39.717Z,7.65
2023-02-16T12:48:57.590Z,7.63
2023-02-16T12:54:19.573Z,8.15
2023-02-16T12:59:57.628Z,8.18
2023-02-16T13:05:26.016Z,7.57
2023-02-16T13:10:51.198Z,8.48
2023-02-16T13:16:14.961Z,8.20
2023-02-16T13:21:51.618Z,8.38
2023-02-16T13:27:31.472Z,8.57
2023-02-16T13:32:54.039Z,7.95
2023-02-16T13:38:11.720Z,9.55
2023-02-16T13:43:32.821Z,10.35
2023-02-16T13:48:50.603Z,9.73
2023-02-16T13:54:01.824Z,9.00
2023-02-16T13:59:37.128Z,15.88
2023-02-16T14:04:39.825Z,10.23
2023-02-16T14:09:42.513Z,9.43
2023-02-16T14:15:21.028Z,7.35
2023-02-16T14:20:23.837Z,10.48
2023-02-16T14:25:34.062Z,10.07
2023-02-16T14:30:43.094Z,8.80
2023-02-16T14:36:09.395Z,9.05
2023-02-16T14:41:37.035Z,8.60
2023-02-16T14:47:29.559Z,8.55
2023-02-16T14:53:24.224Z,8.23
2023-02-16T14:58:37.539Z,7.55
2023-02-16T15:03:54.718Z,7.22
2023-02-16T15:09:01.029Z,6.97
2023-02-16T15:14:11.235Z,6.60
2023-02-16T15:19:23.973Z,6.35
2023-02-16T15:24:26.589Z,6.05
2023-02-16T15:29:30.105Z,7.57
2023-02-16T15:34:36.279Z,7.55
2023-02-16T15:39:49.717Z,7.18
2023-02-16T15:44:59.122Z,7.65
2023-02-16T15:50:14.670Z,7.72
2023-02-16T15:55:17.347Z,7.07
2023-02-16T16:00:25.394Z,6.47
2023-02-16T16:05:36.277Z,6.97
2023-02-16T16:10:42.046Z,6.97
2023-02-16T16:15:49.177Z,6.20
2023-02-16T16:21:02.762Z,7.40
2023-02-16T16:26:19.608Z,5.90
2023-02-16T16:31:22.219Z,6.65
2023-02-16T16:36:32.192Z,6.45
2023-02-16T16:41:34.817Z,6.70
2023-02-16T16:46:37.400Z,5.80
2023-02-16T16:51:44.037Z,5.32
2023-02-16T16:56:46.638Z,7.00
2023-02-16T17:01:50.678Z,5.75
2023-02-16T17:06:53.272Z,6.53
2023-02-16T17:11:55.840Z,6.32
2023-02-16T17:16:58.596Z,6.55
2023-02-16T17:22:01.212Z,6.50
2023-02-16T17:27:03.832Z,7.10
2023-02-16T17:32:06.773Z,6.13
2023-02-16T17:37:11.066Z,5.80
2023-02-16T17:42:13.919Z,6.00
2023-02-16T17:47:17.251Z,5.90
2023-02-16T17:52:19.867Z,4.40
2023-02-16T17:57:22.570Z,4.97
2023-02-16T18:02:25.514Z,8.73
2023-02-16T18:07:28.379Z,5.55
2023-02-16T18:12:31.020Z,5.75
2023-02-16T18:17:33.750Z,6.03
2023-02-16T18:22:36.393Z,5.97
2023-02-16T18:27:39.105Z,6.32
2023-02-16T18:32:45.654Z,5.40
2023-02-16T18:37:49.114Z,6.40
2023-02-16T18:42:51.761Z,6.35
2023-02-16T18:47:54.376Z,5.43
2023-02-16T18:52:57.340Z,6.45
2023-02-16T18:58:07.620Z,6.78
2023-02-16T19:03:10.765Z,5.88
2023-02-16T19:08:13.576Z,7.05
2023-02-16T19:13:16.273Z,7.57
2023-02-16T19:18:19.015Z,7.03
2023-02-16T19:23:22.022Z,7.95
2023-02-16T19:28:24.654Z,7.45
2023-02-16T19:33:27.187Z,8.00
2023-02-16T19:38:30.110Z,10.07
2023-02-16T19:43:33.161Z,7.47
2023-02-16T19:48:35.893Z,7.53
2023-02-16T19:53:40.509Z,7.93
2023-02-16T19:58:43.467Z,7.35
2023-02-16T20:03:46.762Z,8.15
2023-02-16T20:08:51.523Z,8.73
2023-02-16T20:13:55.614Z,8.02
2023-02-16T20:18:59.258Z,8.85
2023-02-16T20:24:04.973Z,8.50
2023-02-16T20:29:11.100Z,7.43
2023-02-16T20:34:13.900Z,8.65
2023-02-16T20:39:16.947Z,7.50
2023-02-16T20:44:19.838Z,8.93
2023-02-16T20:49:22.410Z,9.82
2023-02-16T20:54:25.016Z,10.63
2023-02-16T20:59:27.617Z,12.38
2023-02-16T21:04:30.684Z,10.18
2023-02-16T21:09:33.431Z,9.93
2023-02-16T21:14:36.128Z,8.95
2023-02-16T21:19:39.307Z,6.40
2023-02-16T21:24:43.460Z,6.57
2023-02-16T21:29:46.222Z,6.73
2023-02-16T21:34:52.258Z,6.03
2023-02-16T21:40:14.489Z,5.55
2023-02-16T21:45:18.256Z,6.28
2023-02-16T21:50:22.635Z,5.93
2023-02-16T21:55:45.514Z,5.97
2023-02-16T22:00:52.820Z,7.22
2023-02-16T22:05:58.148Z,6.45
2023-02-16T22:11:13.462Z,6.03
2023-02-16T22:16:20.777Z,5.25
2023-02-16T22:21:25.103Z,6.72
2023-02-16T22:26:32.874Z,6.85
2023-02-16T22:31:36.288Z,6.93
2023-02-16T22:36:39.095Z,6.65
2023-02-16T22:41:42.810Z,5.78
2023-02-16T22:46:47.028Z,7.30
2023-02-16T22:51:51.367Z,7.18
2023-02-16T22:56:55.549Z,6.20
2023-02-16T23:01:59.585Z,8.43
2023-02-16T23:07:03.588Z,8.20
2023-02-16T23:12:06.583Z,6.05
2023-02-16T23:17:09.139Z,4.20
2023-02-16T23:22:11.741Z,3.50
2023-02-16T23:27:14.253Z,3.50
2023-02-16T23:32:16.870Z,3.10
2023-02-16T23:37:19.386Z,4.68
2023-02-16T23:42:22.605Z,3.95
2023-02-16T23:47:25.542Z,3.15
2023-02-16T23:52:28.594Z,2.88
2023-02-16T23:57:31.608Z,2.65
